Terminal Aerodrome Forecast
Issued by NWS

Home | Current Version | Previous Version | Text Only | Print | Product List | Glossary Off
Versions: 1 2 3 4 5 6 7 8 9 10 11 12 13 14 15 16 17 18

000
FTUS43 KMPX 261721 CCA
TAFRNH
TAF COR
KRNH 261721Z 2618/2718 05005KT 6SM BR VCSH OVC008
      TEMPO 2620/2624 OVC010
     FM270100 34004KT 6SM BR OVC003=

USA.gov is the U.S. government's official web portal to all federal, state and local government web resources and services.